Nationale Sud-Est Forcalquier (04) - K

Date : 20/05/2012

Place Nom Licence Catégorie Club Temps CN à J-60 Points Différence Nouveau CN
1 HABERKORN Chloé 10396 D16 2105BO 0:32:01 5746 5164 -582 6457
2 DROIN Solène 17925 D16 4201RA 0:32:23 4740 5105 +365 5685
3 BODY Mathilde 10184 D16 7305RA 0:33:36 5501 4920 -581 5730
4 GIRARD Lucille 19689 D16 3705CE 0:35:15 5105 4690 -415 5189
5 GUILLEMET Océane 22819 D16 3318AQ 0:36:19 3809 4552 +743 4951
6 VALETTE Marion 10430 D16 6913RA 0:39:06 3693 4228 +535 4501
7 BERRARD Anna 19762 D16 2607RA 0:39:32 4050 4182 +132 4197
8 BORNARD Julie 9402 D16 7305RA 0:40:12 4337 4113 -224 5070
9 ELIAS Pauline 16137 D16 1307PR 0:40:35 3684 4074 +390 3870
10 PICAZO Marie 16555 D16 8405PR 0:40:46 4259 4055 -204 4463
11 FOL Loreline 16393 D16 3105MP 0:43:01 3349 3843 +494 4542
12 LEMERCIER Victoire 11454 D16 5407LO 0:46:32 3723 3553 -170 3896
13 RIVOLLIER Isaline 22451 D16 4201RA 0:46:36 3898 3548 -350 4507
14 DEFIX Julia 19894 D16 4203RA 0:48:34 3563 3404 -159 3640
15 BASSET Fiona 23384 D16 6911RA 0:49:05 4189 3368 -821 4632
16 DELENNE Camilla 13800 D16 1307PR 0:52:37 3997 3142 -855 4335
17 BESTEL Sandra 10758 D16 9105IF 0:54:57 3979 3009 -970 4077
18 CHAILLARD Dana 12045 D16 7305RA 1:01:20 2609 2696 +87 2956
19 BERRIEN Coline 18765 D16 1303PR 1:08:54 2355 2400 +45 2548
20 DEGORS Marine 25439 D16 3809RA 1:13:08 2261 1972
21 RIOU BENARD Clara 26494 D18 8311AZ 1:16:56 2149 2020
22 CHATAGNIER Clea 11106 D16 7404RA 1:23:39 1854 1976 +122 1945
23 COURDIER Mathilde 24386 D16 8404PR 1:55:44 1254 1429 +175 1372
PETER-JAN Lucile 19276 D16 3705CE pm 4983 0 4932
BEGUINOT Claire 13961 D16 5702LO pm 0 0 2907
BISSIERE Camille 19486 D16 4709AQ pm 4295 0 4148
JALLADE Mathilde 25649 D16 8404PR pm 0 0